sensor_id;sensor_type;location;lat;lon;timestamp;P1;durP1;ratioP1;P2;durP2;ratioP2
57225;SDS011;43082;43.568;22.256;2024-02-26T00:02:15;82.68;;;49.00;;
57225;SDS011;43082;43.568;22.256;2024-02-26T00:04:41;42.97;;;28.13;;
57225;SDS011;43082;43.568;22.256;2024-02-26T00:07:06;51.33;;;37.25;;
57225;SDS011;43082;43.568;22.256;2024-02-26T00:09:32;58.53;;;40.67;;
57225;SDS011;43082;43.568;22.256;2024-02-26T00:12:00;56.22;;;38.13;;
57225;SDS011;43082;43.568;22.256;2024-02-26T00:14:26;56.65;;;37.92;;
57225;SDS011;43082;43.568;22.256;2024-02-26T00:16:52;60.53;;;42.53;;
57225;SDS011;43082;43.568;22.256;2024-02-26T00:19:17;66.10;;;45.08;;
57225;SDS011;43082;43.568;22.256;2024-02-26T00:21:42;55.30;;;36.85;;
57225;SDS011;43082;43.568;22.256;2024-02-26T00:24:08;50.17;;;34.67;;
57225;SDS011;43082;43.568;22.256;2024-02-26T00:26:33;48.13;;;32.80;;
57225;SDS011;43082;43.568;22.256;2024-02-26T00:28:59;50.95;;;36.17;;
57225;SDS011;43082;43.568;22.256;2024-02-26T00:31:24;57.63;;;40.03;;
57225;SDS011;43082;43.568;22.256;2024-02-26T00:33:50;76.55;;;53.00;;
57225;SDS011;43082;43.568;22.256;2024-02-26T00:36:15;75.80;;;51.45;;
57225;SDS011;43082;43.568;22.256;2024-02-26T00:38:41;78.53;;;53.60;;
57225;SDS011;43082;43.568;22.256;2024-02-26T00:41:07;56.42;;;40.63;;
57225;SDS011;43082;43.568;22.256;2024-02-26T00:43:33;50.97;;;34.30;;
57225;SDS011;43082;43.568;22.256;2024-02-26T00:45:59;46.17;;;34.10;;
57225;SDS011;43082;43.568;22.256;2024-02-26T00:48:24;60.83;;;42.20;;
57225;SDS011;43082;43.568;22.256;2024-02-26T00:50:50;60.67;;;43.80;;
57225;SDS011;43082;43.568;22.256;2024-02-26T00:53:16;53.42;;;38.40;;
57225;SDS011;43082;43.568;22.256;2024-02-26T00:55:42;65.88;;;45.97;;
57225;SDS011;43082;43.568;22.256;2024-02-26T00:58:07;64.50;;;44.28;;
57225;SDS011;43082;43.568;22.256;2024-02-26T01:00:33;49.05;;;34.92;;
57225;SDS011;43082;43.568;22.256;2024-02-26T01:02:58;57.38;;;38.85;;
57225;SDS011;43082;43.568;22.256;2024-02-26T01:05:24;55.08;;;39.80;;
57225;SDS011;43082;43.568;22.256;2024-02-26T01:07:50;50.55;;;35.38;;
57225;SDS011;43082;43.568;22.256;2024-02-26T01:10:15;52.00;;;35.38;;
57225;SDS011;43082;43.568;22.256;2024-02-26T01:12:41;48.80;;;32.97;;
57225;SDS011;43082;43.568;22.256;2024-02-26T01:15:06;44.10;;;32.28;;
57225;SDS011;43082;43.568;22.256;2024-02-26T01:17:33;48.50;;;33.65;;
57225;SDS011;43082;43.568;22.256;2024-02-26T01:19:58;36.50;;;25.63;;
57225;SDS011;43082;43.568;22.256;2024-02-26T01:22:24;41.08;;;27.25;;
57225;SDS011;43082;43.568;22.256;2024-02-26T01:24:49;35.40;;;23.85;;
57225;SDS011;43082;43.568;22.256;2024-02-26T01:27:15;33.00;;;22.58;;
57225;SDS011;43082;43.568;22.256;2024-02-26T01:29:41;33.90;;;23.13;;
57225;SDS011;43082;43.568;22.256;2024-02-26T01:32:06;31.45;;;20.55;;
57225;SDS011;43082;43.568;22.256;2024-02-26T01:34:32;28.98;;;20.02;;
57225;SDS011;43082;43.568;22.256;2024-02-26T01:36:57;31.23;;;19.83;;
57225;SDS011;43082;43.568;22.256;2024-02-26T01:39:23;27.15;;;16.95;;
57225;SDS011;43082;43.568;22.256;2024-02-26T01:41:48;28.80;;;19.83;;
57225;SDS011;43082;43.568;22.256;2024-02-26T01:44:14;36.22;;;22.90;;
57225;SDS011;43082;43.568;22.256;2024-02-26T01:46:39;44.00;;;28.25;;
57225;SDS011;43082;43.568;22.256;2024-02-26T01:49:05;33.72;;;22.35;;
57225;SDS011;43082;43.568;22.256;2024-02-26T01:51:31;32.20;;;20.77;;
57225;SDS011;43082;43.568;22.256;2024-02-26T01:53:57;32.47;;;21.92;;
57225;SDS011;43082;43.568;22.256;2024-02-26T01:56:23;35.45;;;25.88;;
57225;SDS011;43082;43.568;22.256;2024-02-26T01:58:53;36.58;;;26.13;;
57225;SDS011;43082;43.568;22.256;2024-02-26T02:01:18;40.88;;;27.63;;
57225;SDS011;43082;43.568;22.256;2024-02-26T02:03:46;43.92;;;29.58;;
57225;SDS011;43082;43.568;22.256;2024-02-26T02:06:12;50.25;;;32.83;;
57225;SDS011;43082;43.568;22.256;2024-02-26T02:08:37;43.67;;;29.33;;
57225;SDS011;43082;43.568;22.256;2024-02-26T02:11:03;40.33;;;26.23;;
57225;SDS011;43082;43.568;22.256;2024-02-26T02:13:28;33.33;;;22.63;;
57225;SDS011;43082;43.568;22.256;2024-02-26T02:15:54;37.78;;;25.58;;
57225;SDS011;43082;43.568;22.256;2024-02-26T02:18:19;35.25;;;23.63;;
57225;SDS011;43082;43.568;22.256;2024-02-26T02:20:45;31.65;;;21.17;;
57225;SDS011;43082;43.568;22.256;2024-02-26T02:23:10;28.98;;;19.90;;
57225;SDS011;43082;43.568;22.256;2024-02-26T02:25:36;33.75;;;22.95;;
57225;SDS011;43082;43.568;22.256;2024-02-26T02:28:01;33.67;;;23.17;;
57225;SDS011;43082;43.568;22.256;2024-02-26T02:30:28;36.50;;;25.35;;
57225;SDS011;43082;43.568;22.256;2024-02-26T02:32:54;37.92;;;23.92;;
57225;SDS011;43082;43.568;22.256;2024-02-26T02:35:20;27.40;;;17.90;;
57225;SDS011;43082;43.568;22.256;2024-02-26T02:37:46;25.33;;;18.55;;
57225;SDS011;43082;43.568;22.256;2024-02-26T02:40:11;30.02;;;20.83;;
57225;SDS011;43082;43.568;22.256;2024-02-26T02:42:37;29.80;;;19.55;;
57225;SDS011;43082;43.568;22.256;2024-02-26T02:45:02;28.33;;;20.77;;
57225;SDS011;43082;43.568;22.256;2024-02-26T02:47:28;27.08;;;18.90;;
57225;SDS011;43082;43.568;22.256;2024-02-26T02:49:53;29.27;;;20.05;;
57225;SDS011;43082;43.568;22.256;2024-02-26T02:52:19;26.52;;;17.85;;
57225;SDS011;43082;43.568;22.256;2024-02-26T02:54:44;30.50;;;21.42;;
57225;SDS011;43082;43.568;22.256;2024-02-26T02:57:12;30.80;;;17.45;;
57225;SDS011;43082;43.568;22.256;2024-02-26T02:59:37;29.08;;;17.42;;
57225;SDS011;43082;43.568;22.256;2024-02-26T03:02:03;31.15;;;19.67;;
57225;SDS011;43082;43.568;22.256;2024-02-26T03:04:28;26.35;;;17.30;;
57225;SDS011;43082;43.568;22.256;2024-02-26T03:06:54;26.20;;;17.67;;
57225;SDS011;43082;43.568;22.256;2024-02-26T03:09:20;27.08;;;19.45;;
57225;SDS011;43082;43.568;22.256;2024-02-26T03:11:45;34.72;;;31.00;;
57225;SDS011;43082;43.568;22.256;2024-02-26T03:14:11;98.53;;;88.05;;
57225;SDS011;43082;43.568;22.256;2024-02-26T03:16:36;27.95;;;19.48;;
57225;SDS011;43082;43.568;22.256;2024-02-26T03:19:01;26.33;;;17.02;;
57225;SDS011;43082;43.568;22.256;2024-02-26T03:21:28;24.52;;;17.58;;
57225;SDS011;43082;43.568;22.256;2024-02-26T03:23:54;29.95;;;22.20;;
57225;SDS011;43082;43.568;22.256;2024-02-26T03:26:19;30.42;;;22.00;;
57225;SDS011;43082;43.568;22.256;2024-02-26T03:28:46;22.08;;;14.57;;
57225;SDS011;43082;43.568;22.256;2024-02-26T03:31:12;25.40;;;15.90;;
57225;SDS011;43082;43.568;22.256;2024-02-26T03:33:37;23.33;;;16.30;;
57225;SDS011;43082;43.568;22.256;2024-02-26T03:36:03;21.15;;;14.23;;
57225;SDS011;43082;43.568;22.256;2024-02-26T03:38:29;21.15;;;13.38;;
57225;SDS011;43082;43.568;22.256;2024-02-26T03:40:55;20.60;;;12.95;;
57225;SDS011;43082;43.568;22.256;2024-02-26T03:43:21;22.35;;;12.30;;
57225;SDS011;43082;43.568;22.256;2024-02-26T03:45:46;20.20;;;12.23;;
57225;SDS011;43082;43.568;22.256;2024-02-26T03:48:12;20.15;;;11.80;;
57225;SDS011;43082;43.568;22.256;2024-02-26T03:50:37;18.08;;;11.45;;
57225;SDS011;43082;43.568;22.256;2024-02-26T03:53:03;23.05;;;12.45;;
57225;SDS011;43082;43.568;22.256;2024-02-26T03:55:28;19.00;;;11.93;;
57225;SDS011;43082;43.568;22.256;2024-02-26T03:57:54;18.98;;;12.77;;
57225;SDS011;43082;43.568;22.256;2024-02-26T04:00:19;20.77;;;13.32;;
57225;SDS011;43082;43.568;22.256;2024-02-26T04:02:46;19.42;;;12.85;;
57225;SDS011;43082;43.568;22.256;2024-02-26T04:05:12;19.00;;;12.95;;
57225;SDS011;43082;43.568;22.256;2024-02-26T04:07:38;18.85;;;12.98;;
57225;SDS011;43082;43.568;22.256;2024-02-26T04:10:08;20.90;;;14.73;;
57225;SDS011;43082;43.568;22.256;2024-02-26T04:12:34;25.65;;;15.68;;
57225;SDS011;43082;43.568;22.256;2024-02-26T04:15:00;25.58;;;16.17;;
57225;SDS011;43082;43.568;22.256;2024-02-26T04:17:25;25.02;;;16.65;;
57225;SDS011;43082;43.568;22.256;2024-02-26T04:19:51;22.40;;;16.75;;
57225;SDS011;43082;43.568;22.256;2024-02-26T04:22:16;23.88;;;16.30;;
57225;SDS011;43082;43.568;22.256;2024-02-26T04:24:42;23.25;;;16.08;;
57225;SDS011;43082;43.568;22.256;2024-02-26T04:27:07;21.90;;;16.48;;
57225;SDS011;43082;43.568;22.256;2024-02-26T04:29:33;21.95;;;15.13;;
57225;SDS011;43082;43.568;22.256;2024-02-26T04:31:58;26.60;;;17.70;;
57225;SDS011;43082;43.568;22.256;2024-02-26T04:34:24;27.20;;;18.35;;
57225;SDS011;43082;43.568;22.256;2024-02-26T04:36:50;22.60;;;16.40;;
57225;SDS011;43082;43.568;22.256;2024-02-26T04:39:16;21.50;;;15.35;;
57225;SDS011;43082;43.568;22.256;2024-02-26T04:41:41;23.08;;;15.10;;
57225;SDS011;43082;43.568;22.256;2024-02-26T04:44:07;22.60;;;15.75;;
57225;SDS011;43082;43.568;22.256;2024-02-26T04:46:32;24.08;;;15.80;;
57225;SDS011;43082;43.568;22.256;2024-02-26T04:48:57;25.77;;;15.63;;
57225;SDS011;43082;43.568;22.256;2024-02-26T04:51:23;21.77;;;15.35;;
57225;SDS011;43082;43.568;22.256;2024-02-26T04:53:49;23.48;;;16.27;;
57225;SDS011;43082;43.568;22.256;2024-02-26T04:56:14;24.27;;;16.83;;
57225;SDS011;43082;43.568;22.256;2024-02-26T04:58:39;22.08;;;17.23;;
57225;SDS011;43082;43.568;22.256;2024-02-26T05:01:05;22.35;;;16.70;;
57225;SDS011;43082;43.568;22.256;2024-02-26T05:03:30;21.83;;;15.38;;
57225;SDS011;43082;43.568;22.256;2024-02-26T05:05:56;22.45;;;16.80;;
57225;SDS011;43082;43.568;22.256;2024-02-26T05:08:23;24.08;;;17.85;;
57225;SDS011;43082;43.568;22.256;2024-02-26T05:10:48;23.35;;;17.05;;
57225;SDS011;43082;43.568;22.256;2024-02-26T05:13:14;25.58;;;18.25;;
57225;SDS011;43082;43.568;22.256;2024-02-26T05:15:40;25.15;;;18.40;;
57225;SDS011;43082;43.568;22.256;2024-02-26T05:18:06;28.67;;;19.27;;
57225;SDS011;43082;43.568;22.256;2024-02-26T05:20:33;34.85;;;23.30;;
57225;SDS011;43082;43.568;22.256;2024-02-26T05:23:00;37.70;;;22.55;;
57225;SDS011;43082;43.568;22.256;2024-02-26T05:25:25;37.03;;;24.45;;
57225;SDS011;43082;43.568;22.256;2024-02-26T05:27:51;34.55;;;21.25;;
57225;SDS011;43082;43.568;22.256;2024-02-26T05:30:16;24.67;;;18.55;;
57225;SDS011;43082;43.568;22.256;2024-02-26T05:32:42;25.75;;;18.23;;
57225;SDS011;43082;43.568;22.256;2024-02-26T05:35:07;28.00;;;20.40;;
57225;SDS011;43082;43.568;22.256;2024-02-26T05:37:33;32.50;;;23.20;;
57225;SDS011;43082;43.568;22.256;2024-02-26T05:39:59;29.02;;;21.17;;
57225;SDS011;43082;43.568;22.256;2024-02-26T05:42:24;31.17;;;21.73;;
57225;SDS011;43082;43.568;22.256;2024-02-26T05:44:51;25.80;;;18.55;;
57225;SDS011;43082;43.568;22.256;2024-02-26T05:47:16;30.60;;;21.83;;
57225;SDS011;43082;43.568;22.256;2024-02-26T05:49:42;26.90;;;20.35;;
57225;SDS011;43082;43.568;22.256;2024-02-26T05:52:08;29.48;;;20.38;;
57225;SDS011;43082;43.568;22.256;2024-02-26T05:54:33;30.58;;;21.52;;
57225;SDS011;43082;43.568;22.256;2024-02-26T05:56:59;45.28;;;32.63;;
57225;SDS011;43082;43.568;22.256;2024-02-26T05:59:24;30.98;;;23.25;;
57225;SDS011;43082;43.568;22.256;2024-02-26T06:01:50;26.10;;;20.30;;
57225;SDS011;43082;43.568;22.256;2024-02-26T06:04:15;26.48;;;19.70;;
57225;SDS011;43082;43.568;22.256;2024-02-26T06:06:43;18.20;;;12.05;;
57225;SDS011;43082;43.568;22.256;2024-02-26T06:09:10;24.67;;;17.00;;
57225;SDS011;43082;43.568;22.256;2024-02-26T06:11:36;35.20;;;18.83;;
57225;SDS011;43082;43.568;22.256;2024-02-26T06:14:02;29.52;;;19.05;;
57225;SDS011;43082;43.568;22.256;2024-02-26T06:16:27;23.27;;;17.17;;
57225;SDS011;43082;43.568;22.256;2024-02-26T06:18:53;40.03;;;25.75;;
57225;SDS011;43082;43.568;22.256;2024-02-26T06:21:18;56.08;;;37.80;;
57225;SDS011;43082;43.568;22.256;2024-02-26T06:23:44;41.00;;;30.25;;
57225;SDS011;43082;43.568;22.256;2024-02-26T06:26:09;54.90;;;39.22;;
57225;SDS011;43082;43.568;22.256;2024-02-26T06:28:35;54.38;;;40.53;;
57225;SDS011;43082;43.568;22.256;2024-02-26T06:31:01;41.97;;;30.73;;
57225;SDS011;43082;43.568;22.256;2024-02-26T06:33:26;34.38;;;22.45;;
57225;SDS011;43082;43.568;22.256;2024-02-26T06:35:52;32.92;;;25.65;;
57225;SDS011;43082;43.568;22.256;2024-02-26T06:38:17;35.13;;;25.20;;
57225;SDS011;43082;43.568;22.256;2024-02-26T06:40:43;32.83;;;25.35;;
57225;SDS011;43082;43.568;22.256;2024-02-26T06:43:09;32.35;;;24.05;;
57225;SDS011;43082;43.568;22.256;2024-02-26T06:45:35;33.20;;;25.05;;
57225;SDS011;43082;43.568;22.256;2024-02-26T06:48:00;37.13;;;28.33;;
57225;SDS011;43082;43.568;22.256;2024-02-26T06:50:26;39.10;;;26.17;;
57225;SDS011;43082;43.568;22.256;2024-02-26T06:52:51;37.55;;;25.42;;
57225;SDS011;43082;43.568;22.256;2024-02-26T06:55:16;33.83;;;24.77;;
57225;SDS011;43082;43.568;22.256;2024-02-26T06:57:42;36.38;;;26.95;;
57225;SDS011;43082;43.568;22.256;2024-02-26T07:00:08;40.70;;;27.60;;
57225;SDS011;43082;43.568;22.256;2024-02-26T07:02:33;34.38;;;25.80;;
57225;SDS011;43082;43.568;22.256;2024-02-26T07:04:59;31.58;;;24.38;;
57225;SDS011;43082;43.568;22.256;2024-02-26T07:07:24;36.13;;;28.52;;
57225;SDS011;43082;43.568;22.256;2024-02-26T07:09:50;35.40;;;28.00;;
57225;SDS011;43082;43.568;22.256;2024-02-26T07:12:15;38.55;;;29.08;;
57225;SDS011;43082;43.568;22.256;2024-02-26T07:14:41;45.42;;;35.10;;
57225;SDS011;43082;43.568;22.256;2024-02-26T07:17:07;56.28;;;46.33;;
57225;SDS011;43082;43.568;22.256;2024-02-26T07:19:33;37.10;;;27.25;;
57225;SDS011;43082;43.568;22.256;2024-02-26T07:21:59;42.45;;;34.10;;
57225;SDS011;43082;43.568;22.256;2024-02-26T07:24:26;33.85;;;24.80;;
57225;SDS011;43082;43.568;22.256;2024-02-26T07:26:52;37.65;;;28.30;;
57225;SDS011;43082;43.568;22.256;2024-02-26T07:29:19;43.65;;;32.22;;
57225;SDS011;43082;43.568;22.256;2024-02-26T07:31:45;42.05;;;33.00;;
57225;SDS011;43082;43.568;22.256;2024-02-26T07:34:10;37.00;;;27.45;;
57225;SDS011;43082;43.568;22.256;2024-02-26T07:36:36;41.10;;;29.85;;
57225;SDS011;43082;43.568;22.256;2024-02-26T07:39:01;37.92;;;29.25;;
57225;SDS011;43082;43.568;22.256;2024-02-26T07:41:27;36.50;;;28.15;;
57225;SDS011;43082;43.568;22.256;2024-02-26T07:43:52;41.55;;;31.27;;
57225;SDS011;43082;43.568;22.256;2024-02-26T07:46:18;42.58;;;29.65;;
57225;SDS011;43082;43.568;22.256;2024-02-26T07:48:45;41.45;;;30.35;;
57225;SDS011;43082;43.568;22.256;2024-02-26T07:51:12;39.85;;;29.83;;
57225;SDS011;43082;43.568;22.256;2024-02-26T07:53:39;41.33;;;30.30;;
57225;SDS011;43082;43.568;22.256;2024-02-26T07:56:04;37.03;;;30.25;;
57225;SDS011;43082;43.568;22.256;2024-02-26T07:58:30;42.60;;;30.17;;
57225;SDS011;43082;43.568;22.256;2024-02-26T08:00:55;43.28;;;33.70;;
57225;SDS011;43082;43.568;22.256;2024-02-26T08:03:20;36.92;;;29.55;;
57225;SDS011;43082;43.568;22.256;2024-02-26T08:05:46;43.53;;;32.95;;
57225;SDS011;43082;43.568;22.256;2024-02-26T08:08:12;43.13;;;33.95;;
57225;SDS011;43082;43.568;22.256;2024-02-26T08:10:37;39.80;;;30.42;;
57225;SDS011;43082;43.568;22.256;2024-02-26T08:13:03;39.30;;;30.23;;
57225;SDS011;43082;43.568;22.256;2024-02-26T08:15:31;41.08;;;30.25;;
57225;SDS011;43082;43.568;22.256;2024-02-26T08:17:59;36.60;;;26.52;;
57225;SDS011;43082;43.568;22.256;2024-02-26T08:20:27;36.50;;;27.55;;
57225;SDS011;43082;43.568;22.256;2024-02-26T08:22:53;42.42;;;31.25;;
57225;SDS011;43082;43.568;22.256;2024-02-26T08:25:18;41.05;;;28.27;;
57225;SDS011;43082;43.568;22.256;2024-02-26T08:27:44;36.35;;;27.88;;
57225;SDS011;43082;43.568;22.256;2024-02-26T08:30:09;39.33;;;28.92;;
57225;SDS011;43082;43.568;22.256;2024-02-26T08:32:35;28.67;;;21.63;;
57225;SDS011;43082;43.568;22.256;2024-02-26T08:35:01;34.63;;;25.48;;
57225;SDS011;43082;43.568;22.256;2024-02-26T08:37:26;35.53;;;24.80;;
57225;SDS011;43082;43.568;22.256;2024-02-26T08:39:52;33.08;;;23.23;;
57225;SDS011;43082;43.568;22.256;2024-02-26T08:42:17;33.28;;;25.23;;
57225;SDS011;43082;43.568;22.256;2024-02-26T08:44:43;39.20;;;30.27;;
57225;SDS011;43082;43.568;22.256;2024-02-26T08:47:08;34.55;;;26.48;;
57225;SDS011;43082;43.568;22.256;2024-02-26T08:49:34;33.35;;;24.65;;
57225;SDS011;43082;43.568;22.256;2024-02-26T08:51:59;28.40;;;21.90;;
57225;SDS011;43082;43.568;22.256;2024-02-26T08:54:24;27.92;;;20.58;;
57225;SDS011;43082;43.568;22.256;2024-02-26T08:56:50;26.58;;;20.33;;
57225;SDS011;43082;43.568;22.256;2024-02-26T08:59:15;31.00;;;21.83;;
57225;SDS011;43082;43.568;22.256;2024-02-26T09:01:41;25.50;;;17.75;;
57225;SDS011;43082;43.568;22.256;2024-02-26T09:04:07;24.13;;;18.15;;
57225;SDS011;43082;43.568;22.256;2024-02-26T09:06:32;36.53;;;31.15;;
57225;SDS011;43082;43.568;22.256;2024-02-26T09:08:58;29.05;;;21.77;;
57225;SDS011;43082;43.568;22.256;2024-02-26T09:11:23;23.55;;;17.73;;
57225;SDS011;43082;43.568;22.256;2024-02-26T09:13:48;21.13;;;15.55;;
57225;SDS011;43082;43.568;22.256;2024-02-26T09:16:14;22.23;;;16.00;;
57225;SDS011;43082;43.568;22.256;2024-02-26T09:18:39;21.33;;;16.83;;
57225;SDS011;43082;43.568;22.256;2024-02-26T09:21:05;21.50;;;15.77;;
57225;SDS011;43082;43.568;22.256;2024-02-26T09:23:31;23.48;;;18.00;;
57225;SDS011;43082;43.568;22.256;2024-02-26T09:25:56;23.60;;;16.35;;
57225;SDS011;43082;43.568;22.256;2024-02-26T09:28:22;24.42;;;17.52;;
57225;SDS011;43082;43.568;22.256;2024-02-26T09:30:48;22.15;;;15.75;;
57225;SDS011;43082;43.568;22.256;2024-02-26T09:33:15;23.55;;;17.00;;
57225;SDS011;43082;43.568;22.256;2024-02-26T09:35:40;21.63;;;14.63;;
57225;SDS011;43082;43.568;22.256;2024-02-26T09:38:06;21.15;;;14.38;;
57225;SDS011;43082;43.568;22.256;2024-02-26T09:40:32;22.88;;;16.80;;
57225;SDS011;43082;43.568;22.256;2024-02-26T09:43:00;20.15;;;15.18;;
57225;SDS011;43082;43.568;22.256;2024-02-26T09:45:29;25.20;;;17.17;;
57225;SDS011;43082;43.568;22.256;2024-02-26T09:47:56;21.33;;;15.43;;
57225;SDS011;43082;43.568;22.256;2024-02-26T09:50:22;23.23;;;18.17;;
57225;SDS011;43082;43.568;22.256;2024-02-26T09:52:48;23.85;;;16.80;;
57225;SDS011;43082;43.568;22.256;2024-02-26T09:55:14;21.35;;;16.52;;
57225;SDS011;43082;43.568;22.256;2024-02-26T09:57:42;22.85;;;16.55;;
57225;SDS011;43082;43.568;22.256;2024-02-26T10:00:10;24.00;;;16.98;;
57225;SDS011;43082;43.568;22.256;2024-02-26T10:02:44;23.80;;;15.90;;
57225;SDS011;43082;43.568;22.256;2024-02-26T10:05:11;21.08;;;15.43;;
57225;SDS011;43082;43.568;22.256;2024-02-26T10:07:37;22.42;;;15.75;;
57225;SDS011;43082;43.568;22.256;2024-02-26T10:10:03;25.02;;;17.70;;
57225;SDS011;43082;43.568;22.256;2024-02-26T10:12:29;28.63;;;22.80;;
57225;SDS011;43082;43.568;22.256;2024-02-26T10:14:56;24.90;;;18.42;;
57225;SDS011;43082;43.568;22.256;2024-02-26T10:17:21;22.83;;;18.13;;
57225;SDS011;43082;43.568;22.256;2024-02-26T10:19:47;22.83;;;16.00;;
57225;SDS011;43082;43.568;22.256;2024-02-26T10:22:12;22.77;;;18.05;;
57225;SDS011;43082;43.568;22.256;2024-02-26T10:24:37;25.50;;;17.92;;
57225;SDS011;43082;43.568;22.256;2024-02-26T10:27:03;26.50;;;20.75;;
57225;SDS011;43082;43.568;22.256;2024-02-26T10:29:29;23.80;;;17.73;;
57225;SDS011;43082;43.568;22.256;2024-02-26T10:31:56;24.60;;;16.92;;
57225;SDS011;43082;43.568;22.256;2024-02-26T10:34:22;27.45;;;17.83;;
57225;SDS011;43082;43.568;22.256;2024-02-26T10:36:48;27.83;;;22.83;;
57225;SDS011;43082;43.568;22.256;2024-02-26T10:39:14;23.20;;;17.63;;
57225;SDS011;43082;43.568;22.256;2024-02-26T10:41:40;29.45;;;20.90;;
57225;SDS011;43082;43.568;22.256;2024-02-26T10:44:10;29.80;;;18.77;;
57225;SDS011;43082;43.568;22.256;2024-02-26T10:46:37;27.38;;;16.88;;
57225;SDS011;43082;43.568;22.256;2024-02-26T10:49:02;22.67;;;15.65;;
57225;SDS011;43082;43.568;22.256;2024-02-26T10:51:30;22.00;;;18.42;;
57225;SDS011;43082;43.568;22.256;2024-02-26T10:53:57;24.83;;;18.50;;
57225;SDS011;43082;43.568;22.256;2024-02-26T10:56:27;25.77;;;18.00;;
57225;SDS011;43082;43.568;22.256;2024-02-26T10:58:57;23.13;;;17.55;;
57225;SDS011;43082;43.568;22.256;2024-02-26T11:01:23;25.00;;;16.83;;
57225;SDS011;43082;43.568;22.256;2024-02-26T11:03:50;21.02;;;16.42;;
57225;SDS011;43082;43.568;22.256;2024-02-26T11:06:16;20.70;;;14.38;;
57225;SDS011;43082;43.568;22.256;2024-02-26T11:08:43;23.65;;;19.17;;
57225;SDS011;43082;43.568;22.256;2024-02-26T11:11:08;22.70;;;15.60;;
57225;SDS011;43082;43.568;22.256;2024-02-26T11:13:34;24.73;;;16.23;;
57225;SDS011;43082;43.568;22.256;2024-02-26T11:16:03;22.25;;;14.85;;
57225;SDS011;43082;43.568;22.256;2024-02-26T11:18:28;17.73;;;13.15;;
57225;SDS011;43082;43.568;22.256;2024-02-26T11:20:55;22.30;;;16.90;;
57225;SDS011;43082;43.568;22.256;2024-02-26T11:23:22;22.23;;;15.57;;
57225;SDS011;43082;43.568;22.256;2024-02-26T11:25:52;24.20;;;17.45;;
57225;SDS011;43082;43.568;22.256;2024-02-26T11:28:19;24.45;;;16.52;;
57225;SDS011;43082;43.568;22.256;2024-02-26T11:30:46;21.27;;;15.23;;
57225;SDS011;43082;43.568;22.256;2024-02-26T11:33:13;22.70;;;16.30;;
57225;SDS011;43082;43.568;22.256;2024-02-26T11:35:39;19.45;;;14.63;;
57225;SDS011;43082;43.568;22.256;2024-02-26T11:38:05;25.40;;;17.40;;
57225;SDS011;43082;43.568;22.256;2024-02-26T11:40:32;23.67;;;16.05;;
57225;SDS011;43082;43.568;22.256;2024-02-26T11:42:59;28.27;;;18.33;;
57225;SDS011;43082;43.568;22.256;2024-02-26T11:48:28;23.45;;;18.45;;
57225;SDS011;43082;43.568;22.256;2024-02-26T11:50:54;21.75;;;15.35;;
57225;SDS011;43082;43.568;22.256;2024-02-26T11:55:46;23.98;;;17.10;;
57225;SDS011;43082;43.568;22.256;2024-02-26T11:58:11;24.67;;;20.50;;
57225;SDS011;43082;43.568;22.256;2024-02-26T12:00:37;26.75;;;17.85;;
57225;SDS011;43082;43.568;22.256;2024-02-26T12:03:07;23.95;;;16.15;;
57225;SDS011;43082;43.568;22.256;2024-02-26T12:05:35;31.63;;;22.13;;
57225;SDS011;43082;43.568;22.256;2024-02-26T12:08:03;23.15;;;16.95;;
57225;SDS011;43082;43.568;22.256;2024-02-26T12:10:32;26.63;;;19.48;;
57225;SDS011;43082;43.568;22.256;2024-02-26T12:15:55;27.45;;;20.00;;
57225;SDS011;43082;43.568;22.256;2024-02-26T12:18:22;27.40;;;20.15;;
57225;SDS011;43082;43.568;22.256;2024-02-26T12:20:57;42.63;;;23.17;;
57225;SDS011;43082;43.568;22.256;2024-02-26T12:23:26;20.90;;;15.00;;
57225;SDS011;43082;43.568;22.256;2024-02-26T12:25:52;19.85;;;14.07;;
57225;SDS011;43082;43.568;22.256;2024-02-26T12:28:17;22.98;;;15.48;;
57225;SDS011;43082;43.568;22.256;2024-02-26T12:30:43;22.27;;;15.57;;
57225;SDS011;43082;43.568;22.256;2024-02-26T12:33:08;18.40;;;13.50;;
57225;SDS011;43082;43.568;22.256;2024-02-26T12:35:34;23.88;;;15.32;;
57225;SDS011;43082;43.568;22.256;2024-02-26T12:38:00;21.88;;;15.60;;
57225;SDS011;43082;43.568;22.256;2024-02-26T12:40:26;21.95;;;14.82;;
57225;SDS011;43082;43.568;22.256;2024-02-26T12:42:52;22.13;;;15.77;;
57225;SDS011;43082;43.568;22.256;2024-02-26T12:45:20;23.92;;;17.15;;
57225;SDS011;43082;43.568;22.256;2024-02-26T12:47:45;19.48;;;15.02;;
57225;SDS011;43082;43.568;22.256;2024-02-26T12:50:11;23.40;;;16.75;;
57225;SDS011;43082;43.568;22.256;2024-02-26T12:52:38;24.58;;;18.77;;
57225;SDS011;43082;43.568;22.256;2024-02-26T12:55:05;24.75;;;18.95;;
57225;SDS011;43082;43.568;22.256;2024-02-26T12:57:34;31.17;;;23.67;;
57225;SDS011;43082;43.568;22.256;2024-02-26T13:00:02;28.67;;;20.50;;
57225;SDS011;43082;43.568;22.256;2024-02-26T13:02:29;23.48;;;17.70;;
57225;SDS011;43082;43.568;22.256;2024-02-26T13:04:55;27.50;;;18.02;;
57225;SDS011;43082;43.568;22.256;2024-02-26T13:07:22;23.63;;;15.82;;
57225;SDS011;43082;43.568;22.256;2024-02-26T13:09:47;19.05;;;14.63;;
57225;SDS011;43082;43.568;22.256;2024-02-26T13:12:13;23.17;;;14.82;;
57225;SDS011;43082;43.568;22.256;2024-02-26T13:14:39;21.45;;;15.30;;
57225;SDS011;43082;43.568;22.256;2024-02-26T13:17:04;21.17;;;13.82;;
57225;SDS011;43082;43.568;22.256;2024-02-26T13:19:30;19.15;;;14.98;;
57225;SDS011;43082;43.568;22.256;2024-02-26T13:21:56;19.35;;;14.40;;
57225;SDS011;43082;43.568;22.256;2024-02-26T13:24:21;17.35;;;13.50;;
57225;SDS011;43082;43.568;22.256;2024-02-26T13:26:53;18.40;;;13.82;;
57225;SDS011;43082;43.568;22.256;2024-02-26T13:29:19;21.33;;;13.90;;
57225;SDS011;43082;43.568;22.256;2024-02-26T13:31:45;21.77;;;14.20;;
57225;SDS011;43082;43.568;22.256;2024-02-26T13:34:11;20.30;;;14.38;;
57225;SDS011;43082;43.568;22.256;2024-02-26T13:36:48;18.45;;;13.63;;
57225;SDS011;43082;43.568;22.256;2024-02-26T13:39:20;20.17;;;13.27;;
57225;SDS011;43082;43.568;22.256;2024-02-26T13:41:50;19.48;;;13.15;;
57225;SDS011;43082;43.568;22.256;2024-02-26T13:44:16;20.35;;;13.20;;
57225;SDS011;43082;43.568;22.256;2024-02-26T13:46:41;20.27;;;14.68;;
57225;SDS011;43082;43.568;22.256;2024-02-26T13:49:08;18.92;;;12.65;;
57225;SDS011;43082;43.568;22.256;2024-02-26T13:51:34;17.63;;;12.70;;
57225;SDS011;43082;43.568;22.256;2024-02-26T13:54:00;15.73;;;12.30;;
57225;SDS011;43082;43.568;22.256;2024-02-26T13:56:26;18.52;;;12.45;;
57225;SDS011;43082;43.568;22.256;2024-02-26T13:58:52;18.13;;;12.65;;
57225;SDS011;43082;43.568;22.256;2024-02-26T14:01:17;18.27;;;13.93;;
57225;SDS011;43082;43.568;22.256;2024-02-26T14:03:43;16.85;;;11.70;;
57225;SDS011;43082;43.568;22.256;2024-02-26T14:06:08;15.68;;;11.95;;
57225;SDS011;43082;43.568;22.256;2024-02-26T14:08:34;21.48;;;13.70;;
57225;SDS011;43082;43.568;22.256;2024-02-26T14:10:59;25.58;;;15.57;;